createdAt,value
2023-01-30T00:01:00.734Z,102163.25
2023-01-30T00:03:29.417Z,102159.25
2023-01-30T00:05:56.829Z,102170.03
2023-01-30T00:08:24.086Z,102183.72
2023-01-30T00:10:51.407Z,102177.66
2023-01-30T00:13:18.661Z,102187.25
2023-01-30T00:15:45.918Z,102170.59
2023-01-30T00:18:13.200Z,102167.78
2023-01-30T00:20:40.477Z,102161.81
2023-01-30T00:23:07.713Z,102160.34
2023-01-30T00:25:35.114Z,102157.84
2023-01-30T00:28:02.502Z,102151.88
2023-01-30T00:30:30.702Z,102142.44
2023-01-30T00:32:59.341Z,102137.63
2023-01-30T00:35:28.772Z,102132.81
2023-01-30T00:37:57.916Z,102126.84
2023-01-30T00:40:26.377Z,102123.53
2023-01-30T00:43:13.232Z,102118.22
2023-01-30T00:46:03.854Z,102121.78
2023-01-30T00:48:32.034Z,102119.06
2023-01-30T00:50:59.333Z,102111.09
2023-01-30T00:53:27.759Z,102107.44
2023-01-30T00:55:56.882Z,102107.09
2023-01-30T00:58:24.787Z,102095.28
2023-01-30T01:00:52.444Z,102088.28
2023-01-30T01:03:20.198Z,102084.44
2023-01-30T01:05:47.687Z,102089.94
2023-01-30T01:08:15.891Z,102078.19
2023-01-30T01:10:43.128Z,102089.28
2023-01-30T01:13:10.682Z,102081.25
2023-01-30T01:15:38.167Z,102081.31
2023-01-30T01:18:06.288Z,102078.63
2023-01-30T01:20:33.607Z,102074.91
2023-01-30T01:23:00.947Z,102075.63
2023-01-30T01:25:28.340Z,102067.16
2023-01-30T01:27:55.844Z,102061.22
2023-01-30T01:30:23.284Z,102057.31
2023-01-30T01:32:50.605Z,102061.06
2023-01-30T01:35:20.041Z,102054.59
2023-01-30T01:37:47.581Z,102050.50
2023-01-30T01:40:38.741Z,102051.19
2023-01-30T01:43:22.201Z,102061.44
2023-01-30T01:46:21.805Z,102061.53
2023-01-30T01:48:52.570Z,102053.94
2023-01-30T01:51:28.032Z,102051.09
2023-01-30T01:54:02.021Z,102055.25
2023-01-30T01:56:32.843Z,102067.09
2023-01-30T01:59:09.095Z,102045.03
2023-01-30T02:01:38.802Z,102050.31
2023-01-30T02:04:10.135Z,102058.31
2023-01-30T02:06:39.936Z,102056.88
2023-01-30T02:09:09.188Z,102052.13
2023-01-30T02:11:47.105Z,102044.81
2023-01-30T02:14:14.962Z,102058.78
2023-01-30T02:16:44.288Z,102062.13
2023-01-30T02:19:39.955Z,102055.19
2023-01-30T02:22:16.310Z,102060.78
2023-01-30T02:24:44.097Z,102049.28
2023-01-30T02:27:23.894Z,102043.16
2023-01-30T02:30:26.749Z,102038.84
2023-01-30T02:33:28.682Z,102040.28
2023-01-30T02:36:09.674Z,102035.84
2023-01-30T02:38:47.626Z,102038.09
2023-01-30T02:41:42.834Z,102035.19
2023-01-30T02:44:16.878Z,102037.53
2023-01-30T02:46:54.260Z,102041.38
2023-01-30T02:49:29.365Z,102045.13
2023-01-30T02:51:58.033Z,102037.59
2023-01-30T02:54:25.379Z,102048.41
2023-01-30T02:56:58.581Z,102056.50
2023-01-30T02:59:35.168Z,102046.78
2023-01-30T03:02:17.768Z,102049.13
2023-01-30T03:05:03.885Z,102048.59
2023-01-30T03:07:50.024Z,102049.44
2023-01-30T03:10:28.443Z,102041.06
2023-01-30T03:13:07.250Z,102047.22
2023-01-30T03:15:46.278Z,102043.31
2023-01-30T03:18:13.916Z,102043.81
2023-01-30T03:20:41.446Z,102052.66
2023-01-30T03:23:09.016Z,102050.19
2023-01-30T03:25:38.376Z,102044.03
2023-01-30T03:28:06.151Z,102047.25
2023-01-30T03:30:33.743Z,102045.50
2023-01-30T03:33:08.166Z,102050.88
2023-01-30T03:35:37.090Z,102042.97
2023-01-30T03:38:04.780Z,102045.03
2023-01-30T03:40:32.094Z,102034.59
2023-01-30T03:42:59.712Z,102032.19
2023-01-30T03:45:26.984Z,102042.59
2023-01-30T03:47:54.341Z,102043.06
2023-01-30T03:50:21.815Z,102040.00
2023-01-30T03:52:49.124Z,102032.31
2023-01-30T03:55:19.981Z,102032.66
2023-01-30T03:57:47.727Z,102015.41
2023-01-30T04:00:16.295Z,102017.09
2023-01-30T04:02:43.703Z,102014.03
2023-01-30T04:05:14.163Z,102019.03
2023-01-30T04:07:46.400Z,102010.44
2023-01-30T04:10:15.488Z,102008.75
2023-01-30T04:12:43.065Z,102007.38
2023-01-30T04:15:11.619Z,102006.03
2023-01-30T04:17:59.034Z,102004.66
2023-01-30T04:20:46.663Z,102003.78
2023-01-30T04:23:15.922Z,102008.41
2023-01-30T04:25:48.738Z,102003.09
2023-01-30T04:28:18.827Z,102010.31
2023-01-30T04:30:46.288Z,102010.91
2023-01-30T04:33:36.979Z,101994.13
2023-01-30T04:36:08.300Z,101991.53
2023-01-30T04:38:36.320Z,101982.13
2023-01-30T04:41:04.931Z,101975.81
2023-01-30T04:43:34.784Z,101979.13
2023-01-30T04:46:23.373Z,101976.56
2023-01-30T04:48:50.645Z,101967.63
2023-01-30T04:51:17.955Z,101975.59
2023-01-30T04:53:45.494Z,101973.06
2023-01-30T04:56:14.011Z,101972.53
2023-01-30T04:58:42.379Z,101971.84
2023-01-30T05:01:41.629Z,101984.16
2023-01-30T05:04:09.235Z,101988.38
2023-01-30T05:06:37.039Z,101978.72
2023-01-30T05:09:04.716Z,101973.72
2023-01-30T05:11:33.475Z,101974.31
2023-01-30T05:14:00.840Z,101992.50
2023-01-30T05:16:28.566Z,101983.47
2023-01-30T05:18:55.916Z,101987.28
2023-01-30T05:21:26.268Z,101971.56
2023-01-30T05:23:54.616Z,101971.50
2023-01-30T05:26:22.329Z,101984.31
2023-01-30T05:28:54.446Z,101982.09
2023-01-30T05:31:21.878Z,101971.63
2023-01-30T05:34:00.822Z,101967.72
2023-01-30T05:36:31.079Z,101966.47
2023-01-30T05:39:07.912Z,101971.78
2023-01-30T05:41:35.555Z,101974.16
2023-01-30T05:44:02.770Z,101969.31
2023-01-30T05:46:30.165Z,101964.47
2023-01-30T05:48:57.614Z,101968.09
2023-01-30T05:51:26.141Z,101950.91
2023-01-30T05:53:53.762Z,101958.38
2023-01-30T05:56:21.586Z,101966.94
2023-01-30T05:58:53.330Z,101970.00
2023-01-30T06:01:20.987Z,101964.13
2023-01-30T06:03:48.860Z,101949.44
2023-01-30T06:06:16.369Z,101952.91
2023-01-30T06:08:43.693Z,101953.91
2023-01-30T06:11:13.675Z,101961.00
2023-01-30T06:13:41.993Z,101953.59
2023-01-30T06:16:11.940Z,101955.22
2023-01-30T06:18:39.570Z,101944.75
2023-01-30T06:21:07.237Z,101944.06
2023-01-30T06:23:34.614Z,101934.59
2023-01-30T06:26:03.699Z,101924.25
2023-01-30T06:28:32.237Z,101924.94
2023-01-30T06:30:59.671Z,101928.91
2023-01-30T06:33:27.147Z,101933.50
2023-01-30T06:35:54.840Z,101937.75
2023-01-30T06:38:22.253Z,101941.91
2023-01-30T06:40:50.600Z,101954.72
2023-01-30T06:43:18.096Z,101954.66
2023-01-30T06:45:45.688Z,101958.03
2023-01-30T06:48:13.125Z,101968.00
2023-01-30T06:50:40.440Z,101965.28
2023-01-30T06:53:08.429Z,101968.75
2023-01-30T06:55:36.398Z,101988.38
2023-01-30T06:58:14.306Z,101988.69
2023-01-30T07:00:42.588Z,101991.63
2023-01-30T07:03:17.724Z,101995.75
2023-01-30T07:05:49.739Z,102011.81
2023-01-30T07:08:17.260Z,102000.50
2023-01-30T07:10:45.026Z,102008.09
2023-01-30T07:13:12.774Z,102008.97
2023-01-30T07:15:40.111Z,102011.81
2023-01-30T07:18:08.530Z,102014.81
2023-01-30T07:20:35.998Z,102015.28
2023-01-30T07:23:03.543Z,102023.44
2023-01-30T07:25:30.843Z,102015.22
2023-01-30T07:27:59.996Z,102021.28
2023-01-30T07:30:28.476Z,102017.13
2023-01-30T07:32:57.859Z,102023.81
2023-01-30T07:35:27.153Z,102031.28
2023-01-30T07:37:54.378Z,102038.28
2023-01-30T07:40:22.079Z,102036.19
2023-01-30T07:43:00.477Z,102039.06
2023-01-30T07:45:44.957Z,102035.69
2023-01-30T07:48:14.478Z,102032.47
2023-01-30T07:50:42.210Z,102037.28
2023-01-30T07:53:11.656Z,102035.47
2023-01-30T07:55:38.915Z,102028.84
2023-01-30T07:58:06.208Z,102027.56
2023-01-30T08:00:34.339Z,102034.16
2023-01-30T08:03:01.707Z,102037.56
2023-01-30T08:05:29.117Z,102034.38
2023-01-30T08:07:56.772Z,102027.44
2023-01-30T08:10:24.115Z,102020.94
2023-01-30T08:12:51.724Z,102030.69
2023-01-30T08:15:20.649Z,102034.53
2023-01-30T08:17:56.220Z,102030.44
2023-01-30T08:20:24.270Z,102030.56
2023-01-30T08:22:51.552Z,102039.44
2023-01-30T08:25:19.199Z,102037.34
2023-01-30T08:27:47.087Z,102036.88
2023-01-30T08:30:14.581Z,102040.09
2023-01-30T08:32:41.848Z,102044.75
2023-01-30T08:35:09.905Z,102056.50
2023-01-30T08:37:39.662Z,102048.19
2023-01-30T08:40:08.208Z,102045.88
2023-01-30T08:42:35.588Z,102049.53
2023-01-30T08:45:03.111Z,102058.16
2023-01-30T08:47:31.100Z,102060.06
2023-01-30T08:49:58.439Z,102059.00
2023-01-30T08:52:25.813Z,102056.09
2023-01-30T08:54:53.403Z,102058.16
2023-01-30T08:57:20.682Z,102052.06
2023-01-30T08:59:48.384Z,102064.81
2023-01-30T09:02:15.780Z,102066.47
2023-01-30T09:04:43.022Z,102058.47
2023-01-30T09:07:10.557Z,102062.88
2023-01-30T09:09:37.981Z,102063.06
2023-01-30T09:12:05.472Z,102068.59
2023-01-30T09:14:32.883Z,102080.03
2023-01-30T09:17:00.373Z,102080.41
2023-01-30T09:19:28.693Z,102076.97
2023-01-30T09:21:56.652Z,102084.38
2023-01-30T09:24:27.881Z,102086.59
2023-01-30T09:26:57.715Z,102077.44
2023-01-30T09:29:28.613Z,102081.22
2023-01-30T09:31:56.870Z,102076.44
2023-01-30T09:34:28.852Z,102073.97
2023-01-30T09:36:57.670Z,102080.63
2023-01-30T09:39:24.980Z,102086.44
2023-01-30T09:42:04.728Z,102083.72
2023-01-30T09:44:41.327Z,102077.75
2023-01-30T09:47:12.764Z,102064.16
2023-01-30T09:49:48.936Z,102073.09
2023-01-30T09:52:35.015Z,102082.47
2023-01-30T09:55:22.109Z,102071.34
2023-01-30T09:57:49.828Z,102078.66
2023-01-30T10:00:26.937Z,102074.31
2023-01-30T10:03:05.372Z,102073.22
2023-01-30T10:05:46.530Z,102062.28
2023-01-30T10:08:38.617Z,102076.72
2023-01-30T10:11:31.059Z,102086.44
2023-01-30T10:14:32.417Z,102085.56
2023-01-30T10:17:21.644Z,102086.22
2023-01-30T10:20:20.725Z,102091.97
2023-01-30T10:23:05.202Z,102085.41
2023-01-30T10:25:47.927Z,102093.47
2023-01-30T10:28:30.686Z,102098.03
2023-01-30T10:31:09.458Z,102105.94
2023-01-30T10:33:44.987Z,102103.06
2023-01-30T10:36:28.299Z,102100.75
2023-01-30T10:38:57.309Z,102098.16
2023-01-30T10:41:47.860Z,102095.22
2023-01-30T10:44:18.491Z,102087.97
2023-01-30T10:46:57.636Z,102084.91
2023-01-30T10:49:44.279Z,102068.22
2023-01-30T10:52:43.960Z,102075.28
2023-01-30T10:55:36.270Z,102068.75
2023-01-30T10:58:18.713Z,102073.47
2023-01-30T11:00:46.517Z,102083.19
2023-01-30T11:03:32.556Z,102084.31
2023-01-30T11:06:06.679Z,102072.63
2023-01-30T11:08:35.219Z,102074.81
2023-01-30T11:11:25.269Z,102065.75
2023-01-30T11:14:01.188Z,102066.03
2023-01-30T11:16:28.450Z,102073.44
2023-01-30T11:19:19.635Z,102080.84
2023-01-30T11:21:51.935Z,102072.19
2023-01-30T11:24:23.371Z,102058.72
2023-01-30T11:26:52.739Z,102061.38
2023-01-30T11:29:31.966Z,102056.47
2023-01-30T11:32:11.941Z,102055.91
2023-01-30T11:34:39.425Z,102049.34
2023-01-30T11:37:25.956Z,102065.69
2023-01-30T11:39:53.539Z,102067.63
2023-01-30T11:42:25.427Z,102063.72
2023-01-30T11:45:14.876Z,102054.66
2023-01-30T11:48:05.782Z,102044.03
2023-01-30T11:50:41.636Z,102040.72
2023-01-30T11:53:29.668Z,102050.56
2023-01-30T11:56:08.803Z,102043.84
2023-01-30T11:58:39.988Z,102043.56
2023-01-30T12:01:09.722Z,102040.84
2023-01-30T12:03:47.843Z,102026.34
2023-01-30T12:06:32.492Z,102027.81
2023-01-30T12:08:59.899Z,102035.19
2023-01-30T12:11:32.046Z,102040.28
2023-01-30T12:14:13.248Z,102029.69
2023-01-30T12:17:01.005Z,102028.97
2023-01-30T12:19:38.238Z,102029.53
2023-01-30T12:22:21.955Z,102018.03
2023-01-30T12:25:11.071Z,102010.88
2023-01-30T12:27:48.468Z,102020.75
2023-01-30T12:30:24.587Z,102029.00
2023-01-30T12:32:57.150Z,102017.19
2023-01-30T12:35:32.144Z,102010.31
2023-01-30T12:38:17.995Z,102002.63
2023-01-30T12:41:19.783Z,101997.38
2023-01-30T12:44:16.098Z,101999.88
2023-01-30T12:46:46.541Z,101990.28
2023-01-30T12:49:29.665Z,101983.38
2023-01-30T12:52:41.597Z,101984.50
2023-01-30T12:55:35.309Z,101980.38
2023-01-30T12:58:13.082Z,101986.13
2023-01-30T13:01:22.385Z,101976.25
2023-01-30T13:04:15.203Z,101971.25
2023-01-30T13:07:09.275Z,101972.94
2023-01-30T13:09:45.360Z,101976.25
2023-01-30T13:12:27.879Z,101972.09
2023-01-30T13:14:55.116Z,101965.25
2023-01-30T13:17:49.912Z,101958.91
2023-01-30T13:20:28.772Z,101952.88
2023-01-30T13:23:02.451Z,101961.34
2023-01-30T13:25:41.292Z,101958.59
2023-01-30T13:28:20.821Z,101942.97
2023-01-30T13:30:49.984Z,101955.91
2023-01-30T13:33:22.859Z,101946.25
2023-01-30T13:35:54.699Z,101946.19
2023-01-30T13:38:27.427Z,101955.59
2023-01-30T13:40:57.546Z,101943.22
2023-01-30T13:43:31.582Z,101934.16
2023-01-30T13:46:01.929Z,101936.06
2023-01-30T13:48:42.792Z,101930.53
2023-01-30T13:51:31.813Z,101936.28
2023-01-30T13:54:11.417Z,101947.28
2023-01-30T13:56:54.695Z,101959.91
2023-01-30T13:59:36.795Z,101955.81
2023-01-30T14:02:04.389Z,101948.16
2023-01-30T14:04:41.234Z,101945.97
2023-01-30T14:07:34.079Z,101945.72
2023-01-30T14:10:10.746Z,101948.19
2023-01-30T14:12:49.922Z,101948.69
2023-01-30T14:15:18.938Z,101947.84
2023-01-30T14:18:00.299Z,101953.31
2023-01-30T14:20:30.329Z,101963.50
2023-01-30T14:23:01.769Z,101974.50
2023-01-30T14:25:29.288Z,101972.31
2023-01-30T14:27:59.666Z,101984.44
2023-01-30T14:30:45.262Z,101977.53
2023-01-30T14:33:21.664Z,101982.22
2023-01-30T14:36:14.848Z,101986.06
2023-01-30T14:38:44.487Z,101994.94
2023-01-30T14:41:27.025Z,101995.16
2023-01-30T14:43:54.698Z,101998.44
2023-01-30T14:46:22.082Z,101993.56
2023-01-30T14:49:01.049Z,101980.88
2023-01-30T14:51:43.545Z,101979.22
2023-01-30T14:54:14.584Z,102000.16
2023-01-30T14:56:46.254Z,102001.53
2023-01-30T14:59:16.751Z,102004.53
2023-01-30T15:01:59.404Z,101989.34
2023-01-30T15:04:54.900Z,101993.47
2023-01-30T15:07:23.356Z,101993.47
2023-01-30T15:09:57.348Z,101991.25
2023-01-30T15:12:43.122Z,102000.91
2023-01-30T15:15:19.801Z,102002.25
2023-01-30T15:18:10.077Z,102017.38
2023-01-30T15:21:15.191Z,102021.31
2023-01-30T15:23:49.143Z,102024.03
2023-01-30T15:26:35.472Z,102017.88
2023-01-30T15:29:30.999Z,102026.72
2023-01-30T15:32:03.472Z,102028.09
2023-01-30T15:34:32.374Z,102030.13
2023-01-30T15:37:00.107Z,102032.34
2023-01-30T15:39:28.458Z,102045.78
2023-01-30T15:42:04.896Z,102042.22
2023-01-30T15:44:53.346Z,102054.91
2023-01-30T15:47:48.247Z,102059.03
2023-01-30T15:50:15.736Z,102051.59
2023-01-30T15:52:48.269Z,102057.66
2023-01-30T15:55:27.291Z,102067.84
2023-01-30T15:58:04.738Z,102075.00
2023-01-30T16:00:36.271Z,102070.88
2023-01-30T16:03:05.571Z,102064.53
2023-01-30T16:05:32.841Z,102064.78
2023-01-30T16:08:10.821Z,102061.25
2023-01-30T16:10:46.449Z,102064.25
2023-01-30T16:13:13.762Z,102074.75
2023-01-30T16:15:47.267Z,102079.13
2023-01-30T16:18:33.116Z,102073.63
2023-01-30T16:21:05.294Z,102073.59
2023-01-30T16:23:38.353Z,102068.13
2023-01-30T16:26:08.039Z,102077.47
2023-01-30T16:28:35.493Z,102081.63
2023-01-30T16:31:05.960Z,102090.41
2023-01-30T16:33:37.033Z,102104.19
2023-01-30T16:36:27.917Z,102108.28
2023-01-30T16:38:55.849Z,102109.38
2023-01-30T16:41:31.410Z,102109.09
2023-01-30T16:44:17.563Z,102123.69
2023-01-30T16:46:48.266Z,102128.63
2023-01-30T16:49:22.220Z,102132.22
2023-01-30T16:51:50.994Z,102134.41
2023-01-30T16:54:24.512Z,102139.13
2023-01-30T16:56:54.567Z,102147.94
2023-01-30T16:59:29.880Z,102150.69
2023-01-30T17:01:59.184Z,102156.97
2023-01-30T17:04:29.801Z,102166.09
2023-01-30T17:07:00.807Z,102165.22
2023-01-30T17:09:33.491Z,102169.09
2023-01-30T17:12:00.907Z,102183.78
2023-01-30T17:14:31.469Z,102180.84
2023-01-30T17:17:12.360Z,102186.38
2023-01-30T17:19:39.743Z,102192.41
2023-01-30T17:22:09.108Z,102185.16
2023-01-30T17:24:36.601Z,102190.13
2023-01-30T17:27:04.623Z,102194.19
2023-01-30T17:29:42.357Z,102191.66
2023-01-30T17:32:12.308Z,102208.50
2023-01-30T17:34:41.226Z,102196.28
2023-01-30T17:37:17.153Z,102206.00
2023-01-30T17:39:44.758Z,102212.94
2023-01-30T17:42:13.302Z,102217.88
2023-01-30T17:44:41.127Z,102219.91
2023-01-30T17:47:11.848Z,102228.28
2023-01-30T17:49:40.066Z,102234.94
2023-01-30T17:52:07.368Z,102236.34
2023-01-30T17:54:34.740Z,102242.38
2023-01-30T17:57:09.805Z,102237.53
2023-01-30T17:59:37.122Z,102234.53
2023-01-30T18:02:05.135Z,102230.88
2023-01-30T18:04:32.463Z,102235.53
2023-01-30T18:07:04.388Z,102237.56
2023-01-30T18:09:32.463Z,102240.94
2023-01-30T18:11:59.785Z,102235.53
2023-01-30T18:14:27.156Z,102248.41
2023-01-30T18:16:59.994Z,102253.13
2023-01-30T18:19:31.628Z,102255.63
2023-01-30T18:21:59.180Z,102251.16
2023-01-30T18:24:37.827Z,102255.03
2023-01-30T18:27:19.428Z,102256.94
2023-01-30T18:29:46.773Z,102260.75
2023-01-30T18:32:14.329Z,102268.78
2023-01-30T18:34:41.980Z,102271.53
2023-01-30T18:37:16.803Z,102272.72
2023-01-30T18:39:47.734Z,102274.59
2023-01-30T18:42:15.123Z,102288.34
2023-01-30T18:44:42.476Z,102285.78
2023-01-30T18:47:09.714Z,102279.69
2023-01-30T18:49:37.076Z,102280.41
2023-01-30T18:52:04.976Z,102283.56
2023-01-30T18:54:32.579Z,102287.44
2023-01-30T18:57:00.428Z,102288.78
2023-01-30T18:59:27.800Z,102300.81
2023-01-30T19:01:55.068Z,102300.34
2023-01-30T19:04:23.818Z,102299.28
2023-01-30T19:06:51.113Z,102290.97
2023-01-30T19:09:19.126Z,102308.38
2023-01-30T19:12:04.738Z,102304.25
2023-01-30T19:14:32.067Z,102308.41
2023-01-30T19:16:59.455Z,102316.94
2023-01-30T19:19:27.265Z,102317.25
2023-01-30T19:21:54.624Z,102318.72
2023-01-30T19:24:22.339Z,102320.34
2023-01-30T19:26:50.459Z,102325.63
2023-01-30T19:29:18.372Z,102330.47
2023-01-30T19:31:47.382Z,102338.09
2023-01-30T19:34:15.175Z,102338.63
2023-01-30T19:36:42.717Z,102334.41
2023-01-30T19:39:10.252Z,102347.91
2023-01-30T19:41:37.578Z,102346.78
2023-01-30T19:44:06.802Z,102344.84
2023-01-30T19:46:34.680Z,102361.25
2023-01-30T19:49:03.467Z,102353.56
2023-01-30T19:51:33.660Z,102351.03
2023-01-30T19:54:04.913Z,102345.22
2023-01-30T19:56:33.192Z,102365.09
2023-01-30T19:59:01.171Z,102366.84
2023-01-30T20:01:32.546Z,102369.16
2023-01-30T20:04:01.776Z,102367.69
2023-01-30T20:06:31.809Z,102377.53
2023-01-30T20:09:01.642Z,102377.00
2023-01-30T20:11:29.914Z,102376.75
2023-01-30T20:13:58.491Z,102372.19
2023-01-30T20:16:27.746Z,102376.66
2023-01-30T20:19:00.606Z,102382.75
2023-01-30T20:21:30.076Z,102392.50
2023-01-30T20:23:58.293Z,102394.09
2023-01-30T20:26:28.535Z,102397.69
2023-01-30T20:28:56.763Z,102406.66
2023-01-30T20:31:26.014Z,102410.38
2023-01-30T20:33:55.796Z,102410.69
2023-01-30T20:36:24.864Z,102411.03
2023-01-30T20:38:53.642Z,102400.41
2023-01-30T20:41:25.760Z,102416.97
2023-01-30T20:43:57.880Z,102405.03
2023-01-30T20:46:30.148Z,102405.50
2023-01-30T20:48:59.145Z,102408.75
2023-01-30T20:51:28.534Z,102400.13
2023-01-30T20:53:58.791Z,102403.00
2023-01-30T20:56:26.861Z,102407.66
2023-01-30T20:58:54.157Z,102416.53
2023-01-30T21:01:23.772Z,102405.50
2023-01-30T21:03:53.188Z,102400.84
2023-01-30T21:06:41.116Z,102398.81
2023-01-30T21:09:17.603Z,102395.69
2023-01-30T21:11:45.206Z,102393.22
2023-01-30T21:14:12.751Z,102397.06
2023-01-30T21:16:40.283Z,102390.78
2023-01-30T21:19:11.146Z,102388.75
2023-01-30T21:21:46.970Z,102391.44
2023-01-30T21:24:15.177Z,102391.69
2023-01-30T21:26:46.177Z,102384.66
2023-01-30T21:29:15.581Z,102385.56
2023-01-30T21:31:44.290Z,102392.81
2023-01-30T21:34:12.453Z,102401.97
2023-01-30T21:36:40.332Z,102397.31
2023-01-30T21:39:26.321Z,102394.50
2023-01-30T21:42:12.049Z,102388.66
2023-01-30T21:44:41.088Z,102385.94
2023-01-30T21:47:08.729Z,102393.91
2023-01-30T21:49:37.001Z,102391.09
2023-01-30T21:52:04.571Z,102388.25
2023-01-30T21:54:31.933Z,102392.97
2023-01-30T21:56:59.300Z,102397.22
2023-01-30T21:59:26.687Z,102404.25
2023-01-30T22:01:54.013Z,102409.19
2023-01-30T22:04:21.459Z,102404.53
2023-01-30T22:06:48.785Z,102411.44
2023-01-30T22:09:16.190Z,102418.59
2023-01-30T22:11:43.876Z,102409.63
2023-01-30T22:14:14.923Z,102407.97
2023-01-30T22:16:42.301Z,102405.72
2023-01-30T22:19:09.978Z,102406.56
2023-01-30T22:21:39.943Z,102417.75
2023-01-30T22:24:08.866Z,102423.31
2023-01-30T22:26:36.674Z,102416.94
2023-01-30T22:29:05.144Z,102413.84
2023-01-30T22:31:37.425Z,102411.19
2023-01-30T22:34:05.008Z,102411.59
2023-01-30T22:36:33.982Z,102413.84
2023-01-30T22:39:02.214Z,102411.78
2023-01-30T22:41:32.539Z,102417.00
2023-01-30T22:44:00.184Z,102421.00
2023-01-30T22:46:31.401Z,102424.63
2023-01-30T22:49:00.195Z,102406.63
2023-01-30T22:51:33.807Z,102407.69
2023-01-30T22:54:09.988Z,102403.66
2023-01-30T22:56:40.916Z,102395.59
2023-01-30T22:59:08.948Z,102391.94
2023-01-30T23:01:41.656Z,102399.41
2023-01-30T23:04:18.636Z,102410.56
2023-01-30T23:06:49.276Z,102408.28
2023-01-30T23:09:25.529Z,102399.41
2023-01-30T23:12:16.765Z,102398.66
2023-01-30T23:14:45.010Z,102390.84
2023-01-30T23:17:39.163Z,102401.41
2023-01-30T23:20:12.805Z,102394.59
2023-01-30T23:22:40.605Z,102402.22
2023-01-30T23:25:09.122Z,102399.28
2023-01-30T23:27:40.103Z,102401.72
2023-01-30T23:30:11.539Z,102396.06
2023-01-30T23:32:39.947Z,102394.94
2023-01-30T23:35:10.406Z,102393.75
2023-01-30T23:37:59.732Z,102397.47
2023-01-30T23:40:27.590Z,102395.44
2023-01-30T23:42:54.940Z,102389.75
2023-01-30T23:45:25.586Z,102393.75
2023-01-30T23:47:53.724Z,102398.00
2023-01-30T23:50:29.477Z,102390.75
2023-01-30T23:53:00.101Z,102392.22
2023-01-30T23:55:27.529Z,102393.78
2023-01-30T23:57:54.808Z,102392.81
